Scottsbluff, NE (69361)

4:13 PM MDT on September 02, 2014 (GMT -0600)
Scottsbluff Main Street Market | Change Station
CLOSE
Current Station
Personal Weather Station
Location: Scottsbluff, NE
Elevation: 3881 ft
Nearby Weather Stations

Elev 3881 ft 41.86 °N, 103.67 °W | Updated 11 minutes ago

Clear
Clear
89.7 °F
Feels Like 86 °F
N
4.0
Wind Variable Wind from West
Gusts 8.0 mph

Today
High -- | Low -- °F
--% Chance of Precip.
Yesterday
High -- | Low -- °F
Precip. -- in
6:21 AM 7:26 PM
First Quarter, 55% visible
Pressure 29.79 in
Visibility 10.0 miles
Clouds Clear
Heat Index 86 °F
Dew Point 41 °F
Humidity 18%
Rainfall 0.00 in
Snow Depth Not available.
UV 5 out of 12
Pollen 8.80 out of 12
Air Quality Not available.
Flu Activity Not available.
METAR KBFF 022153Z AUTO 34008KT 10SM CLR 31/06 A2990 RMK AO2 SLP087 T03060056

More Conditions Fewer Conditions

Pressure 29.79 in
Visibility 10.0 miles
Clouds Clear
Heat Index 86 °F
Dew Point 41 °F
Humidity 18%
Rainfall 0.00 in
Snow Depth Not available.
UV 5 out of 12
Pollen 8.80 out of 12
Air Quality Not available.
Flu Activity Not available.
METAR KBFF 022153Z AUTO 34008KT 10SM CLR 31/06 A2990 RMK AO2 SLP087 T03060056

More Conditions Fewer Conditions

10-Day Weather Forecast

Almanac

Astronomy

Sep. 02, 2014 Rise Set
Actual Time 6:21 AM MDT 7:26 PM MDT
Civil Twilight 5:52 AM MDT 7:54 PM MDT
Nautical Twilight 5:18 AM MDT 8:28 PM MDT
Astronomical Twilight 4:42 AM MDT 9:04 PM MDT
Moon 2:14 PM MDT No Moon Set
Length of Visible Light 14h 01m
Length of Day
13h 04m
Tomorrow will be 2m 42s shorter.
First Quarter, 55% of the Moon is Illuminated
Today
First Quarter
Sep 8
Full
Sep 15
Last Quarter
Sep 24
New
Oct 1
First Quarter

Today's Extremes

State Highs State Lows

Community

WunderPhotos

Upload Photos

1,749,782 photos uploaded!

Nearby

Snow Depth

Station Depth Elevation
No new snow has been reported.

Earthquake Activity

City Distance Mag. Time & Date
No recent earthquake activity has been reported nearby.
Minimum magnitude displayed is 2.5.

Coastal Water Temperatures

Place Temperature
No Stations Reporting

Nearby Weather Stations